createdAt,value
2022-12-19T00:00:07.647Z,27.57
2022-12-19T00:02:39.499Z,35.47
2022-12-19T00:05:06.967Z,29.27
2022-12-19T00:07:33.839Z,22.60
2022-12-19T00:10:00.614Z,28.60
2022-12-19T00:12:27.499Z,32.33
2022-12-19T00:14:54.400Z,38.47
2022-12-19T00:17:21.937Z,31.17
2022-12-19T00:19:48.843Z,37.67
2022-12-19T00:22:15.526Z,37.77
2022-12-19T00:24:42.238Z,42.80
2022-12-19T00:27:08.915Z,33.17
2022-12-19T00:29:35.709Z,34.63
2022-12-19T00:32:03.426Z,40.00
2022-12-19T00:34:30.221Z,49.17
2022-12-19T00:36:56.929Z,39.53
2022-12-19T00:39:23.687Z,40.93
2022-12-19T00:41:50.388Z,32.60
2022-12-19T00:44:17.177Z,33.70
2022-12-19T00:46:50.262Z,28.90
2022-12-19T00:49:19.801Z,27.40
2022-12-19T00:51:46.927Z,28.67
2022-12-19T00:54:13.754Z,27.53
2022-12-19T00:56:41.788Z,28.23
2022-12-19T00:59:10.744Z,23.87
2022-12-19T01:01:41.621Z,32.67
2022-12-19T01:04:30.740Z,31.47
2022-12-19T01:07:02.375Z,27.27
2022-12-19T01:09:35.166Z,35.80
2022-12-19T01:12:23.129Z,30.23
2022-12-19T01:14:54.325Z,39.60
2022-12-19T01:17:23.926Z,33.13
2022-12-19T01:19:52.882Z,32.63
2022-12-19T01:22:19.595Z,32.03
2022-12-19T01:24:46.312Z,29.57
2022-12-19T01:27:15.307Z,31.47
2022-12-19T01:29:49.093Z,32.27
2022-12-19T01:32:20.429Z,32.00
2022-12-19T01:34:47.135Z,34.97
2022-12-19T01:37:14.027Z,28.50
2022-12-19T01:39:44.876Z,35.07
2022-12-19T01:42:22.346Z,28.40
2022-12-19T01:45:05.652Z,22.67
2022-12-19T01:47:36.281Z,25.97
2022-12-19T01:50:03.852Z,28.60
2022-12-19T01:52:30.633Z,26.17
2022-12-19T01:55:01.339Z,26.53
2022-12-19T01:57:28.016Z,30.40
2022-12-19T01:59:59.377Z,26.17
2022-12-19T02:02:33.293Z,25.77
2022-12-19T02:05:01.745Z,28.30
2022-12-19T02:07:28.573Z,28.93
2022-12-19T02:09:56.977Z,29.30
2022-12-19T02:12:32.998Z,29.60
2022-12-19T02:15:03.042Z,24.67
2022-12-19T02:17:57.835Z,23.97
2022-12-19T02:20:25.109Z,20.67
2022-12-19T02:23:00.970Z,25.33
2022-12-19T02:25:52.009Z,29.47
2022-12-19T02:28:45.728Z,26.40
2022-12-19T02:31:25.865Z,24.93
2022-12-19T02:34:03.322Z,20.40
2022-12-19T02:36:43.592Z,28.87
2022-12-19T02:39:20.723Z,22.07
2022-12-19T02:41:53.378Z,28.07
2022-12-19T02:44:26.748Z,26.00
2022-12-19T02:46:54.773Z,29.60
2022-12-19T02:49:30.679Z,24.10
2022-12-19T02:52:08.345Z,26.23
2022-12-19T02:54:35.103Z,24.97
2022-12-19T02:57:16.249Z,25.20
2022-12-19T03:00:03.060Z,20.57
2022-12-19T03:03:01.183Z,23.70
2022-12-19T03:05:40.410Z,31.43
2022-12-19T03:08:19.252Z,26.27
2022-12-19T03:10:55.464Z,30.47
2022-12-19T03:13:30.369Z,27.83
2022-12-19T03:15:58.896Z,22.70
2022-12-19T03:18:26.500Z,26.67
2022-12-19T03:21:07.005Z,23.37
2022-12-19T03:23:34.141Z,25.80
2022-12-19T03:26:18.625Z,24.67
2022-12-19T03:28:54.214Z,23.47
2022-12-19T03:31:24.870Z,28.47
2022-12-19T03:33:56.857Z,27.10
2022-12-19T03:36:32.950Z,29.53
2022-12-19T03:39:04.268Z,26.20
2022-12-19T03:41:49.938Z,25.03
2022-12-19T03:44:19.245Z,26.27
2022-12-19T03:46:51.903Z,28.53
2022-12-19T03:49:18.721Z,39.53
2022-12-19T03:52:03.475Z,28.97
2022-12-19T03:54:44.501Z,25.57
2022-12-19T03:57:30.758Z,28.90
2022-12-19T04:00:06.295Z,32.63
2022-12-19T04:02:42.723Z,29.40
2022-12-19T04:05:13.049Z,30.90
2022-12-19T04:07:41.216Z,30.50
2022-12-19T04:10:12.024Z,31.40
2022-12-19T04:12:42.977Z,33.70
2022-12-19T04:15:10.250Z,31.80
2022-12-19T04:17:45.006Z,40.13
2022-12-19T04:20:15.628Z,52.40
2022-12-19T04:22:49.806Z,41.30
2022-12-19T04:25:20.098Z,37.60
2022-12-19T04:27:52.280Z,35.47
2022-12-19T04:30:19.800Z,34.03
2022-12-19T04:32:47.822Z,34.30
2022-12-19T04:35:14.873Z,26.43
2022-12-19T04:37:42.053Z,33.13
2022-12-19T04:40:11.022Z,44.13
2022-12-19T04:42:37.777Z,29.90
2022-12-19T04:45:06.017Z,35.30
2022-12-19T04:47:32.914Z,42.63
2022-12-19T04:49:59.675Z,38.10
2022-12-19T04:52:26.578Z,31.63
2022-12-19T04:54:53.218Z,36.60
2022-12-19T04:57:19.963Z,31.33
2022-12-19T04:59:46.700Z,41.50
2022-12-19T05:02:13.545Z,35.33
2022-12-19T05:04:40.286Z,30.33
2022-12-19T05:07:07.015Z,28.13
2022-12-19T05:09:34.140Z,27.87
2022-12-19T05:12:00.867Z,26.47
2022-12-19T05:14:27.850Z,29.10
2022-12-19T05:17:00.367Z,40.47
2022-12-19T05:19:28.145Z,36.57
2022-12-19T05:21:54.975Z,37.90
2022-12-19T05:24:22.184Z,33.97
2022-12-19T05:26:49.772Z,32.60
2022-12-19T05:29:17.304Z,27.63
2022-12-19T05:31:44.291Z,28.53
2022-12-19T05:34:11.190Z,35.97
2022-12-19T05:36:38.043Z,28.63
2022-12-19T05:39:04.819Z,27.43
2022-12-19T05:41:31.544Z,27.40
2022-12-19T05:43:58.258Z,30.23
2022-12-19T05:46:25.654Z,33.30
2022-12-19T05:49:11.105Z,33.40
2022-12-19T05:51:57.043Z,29.57
2022-12-19T05:54:24.497Z,32.50
2022-12-19T05:56:51.167Z,29.90
2022-12-19T05:59:17.976Z,26.53
2022-12-19T06:01:44.833Z,31.10
2022-12-19T06:04:11.584Z,32.20
2022-12-19T06:06:38.276Z,31.07
2022-12-19T06:09:05.079Z,34.77
2022-12-19T06:11:31.783Z,33.20
2022-12-19T06:13:58.548Z,36.77
2022-12-19T06:16:26.396Z,28.80
2022-12-19T06:18:53.155Z,27.43
2022-12-19T06:21:21.902Z,34.53
2022-12-19T06:23:49.153Z,27.53
2022-12-19T06:26:20.300Z,33.17
2022-12-19T06:28:52.201Z,30.47
2022-12-19T06:31:20.926Z,28.70
2022-12-19T06:33:48.019Z,30.57
2022-12-19T06:36:19.343Z,37.67
2022-12-19T06:38:46.551Z,38.37
2022-12-19T06:41:32.650Z,33.27
2022-12-19T06:44:00.628Z,27.20
2022-12-19T06:46:27.674Z,21.77
2022-12-19T06:48:54.668Z,32.40
2022-12-19T06:51:21.739Z,26.23
2022-12-19T06:53:48.830Z,27.50
2022-12-19T06:56:16.507Z,34.60
2022-12-19T06:58:43.285Z,28.03
2022-12-19T07:01:45.490Z,31.83
2022-12-19T07:04:16.541Z,26.23
2022-12-19T07:06:48.723Z,25.87
2022-12-19T07:09:15.930Z,26.47
2022-12-19T07:11:42.595Z,24.03
2022-12-19T07:14:09.352Z,30.57
2022-12-19T07:16:37.955Z,23.47
2022-12-19T07:19:06.075Z,23.93
2022-12-19T07:21:36.083Z,27.77
2022-12-19T07:24:03.911Z,28.50
2022-12-19T07:26:30.795Z,37.57
2022-12-19T07:28:58.929Z,29.37
2022-12-19T07:31:25.696Z,33.50
2022-12-19T07:33:52.412Z,28.90
2022-12-19T07:36:19.090Z,28.17
2022-12-19T07:38:45.851Z,26.83
2022-12-19T07:41:12.603Z,29.13
2022-12-19T07:43:39.881Z,27.70
2022-12-19T07:46:06.585Z,23.70
2022-12-19T07:48:33.350Z,27.67
2022-12-19T07:51:00.117Z,25.73
2022-12-19T07:53:27.969Z,30.20
2022-12-19T07:55:54.737Z,28.10
2022-12-19T07:58:21.560Z,28.10
2022-12-19T08:01:00.976Z,23.10
2022-12-19T08:03:28.637Z,26.70
2022-12-19T08:06:06.869Z,32.10
2022-12-19T08:08:37.870Z,29.50
2022-12-19T08:11:13.291Z,27.80
2022-12-19T08:13:46.261Z,47.88
2022-12-19T08:16:14.059Z,37.10
2022-12-19T08:18:40.743Z,34.63
2022-12-19T08:21:09.009Z,35.20
2022-12-19T08:23:35.866Z,29.67
2022-12-19T08:26:06.870Z,29.67
2022-12-19T08:28:35.563Z,38.37
2022-12-19T08:31:15.747Z,28.43
2022-12-19T08:33:43.574Z,27.70
2022-12-19T08:36:13.187Z,27.10
2022-12-19T08:38:40.537Z,31.10
2022-12-19T08:41:07.798Z,27.77
2022-12-19T08:43:34.949Z,26.90
2022-12-19T08:46:02.268Z,29.97
2022-12-19T08:48:29.113Z,30.70
2022-12-19T08:50:58.355Z,28.33
2022-12-19T08:53:27.527Z,27.87
2022-12-19T08:55:59.345Z,26.73
2022-12-19T08:58:28.812Z,22.90
2022-12-19T09:01:05.192Z,27.67
2022-12-19T09:03:54.611Z,31.17
2022-12-19T09:06:20.256Z,31.93
2022-12-19T09:08:47.438Z,27.23
2022-12-19T09:11:16.731Z,28.83
2022-12-19T09:13:45.000Z,35.63
2022-12-19T09:16:17.931Z,27.57
2022-12-19T09:18:48.642Z,32.80
2022-12-19T09:21:16.693Z,23.80
2022-12-19T09:23:47.532Z,26.40
2022-12-19T09:26:15.399Z,29.60
2022-12-19T09:28:42.421Z,27.53
2022-12-19T09:31:12.615Z,26.40
2022-12-19T09:33:43.594Z,21.73
2022-12-19T09:36:23.128Z,24.70
2022-12-19T09:38:51.024Z,26.03
2022-12-19T09:41:49.605Z,26.27
2022-12-19T09:44:45.699Z,20.17
2022-12-19T09:47:19.877Z,19.27
2022-12-19T09:49:48.347Z,30.47
2022-12-19T09:52:21.647Z,34.63
2022-12-19T09:55:17.482Z,31.13
2022-12-19T09:57:59.058Z,24.97
2022-12-19T10:00:33.881Z,27.00
2022-12-19T10:03:07.856Z,37.17
2022-12-19T10:06:35.732Z,29.70
2022-12-19T10:08:45.384Z,30.50
2022-12-19T10:12:42.162Z,31.10
2022-12-19T10:14:52.386Z,27.77
2022-12-19T10:17:30.351Z,30.70
2022-12-19T10:19:56.992Z,24.67
2022-12-19T10:22:30.466Z,29.13
2022-12-19T10:25:34.089Z,25.63
2022-12-19T10:28:09.462Z,25.80
2022-12-19T10:30:44.865Z,25.03
2022-12-19T10:33:29.985Z,23.80
2022-12-19T10:36:01.969Z,28.80
2022-12-19T10:38:36.055Z,31.67
2022-12-19T10:41:30.395Z,24.73
2022-12-19T10:44:07.318Z,26.47
2022-12-19T10:46:46.298Z,27.77
2022-12-19T10:49:18.718Z,24.97
2022-12-19T10:51:56.118Z,28.83
2022-12-19T10:54:27.585Z,32.90
2022-12-19T10:57:23.823Z,30.10
2022-12-19T11:00:16.251Z,20.30
2022-12-19T11:02:47.316Z,23.87
2022-12-19T11:08:49.192Z,26.80
2022-12-19T11:14:15.197Z,32.50
2022-12-19T11:19:21.789Z,27.67
2022-12-19T11:21:28.369Z,21.83
2022-12-19T11:29:36.396Z,24.27
2022-12-19T11:29:54.949Z,19.07
2022-12-19T11:30:09.321Z,26.43
2022-12-19T11:30:49.025Z,21.77
2022-12-19T11:34:28.873Z,21.37
2022-12-19T11:37:17.492Z,24.67
2022-12-19T11:39:58.387Z,18.17
2022-12-19T11:42:37.641Z,22.77
2022-12-19T11:45:35.131Z,22.60
2022-12-19T11:48:10.586Z,22.37
2022-12-19T11:50:55.771Z,20.53
2022-12-19T11:53:29.255Z,21.77
2022-12-19T11:56:03.642Z,23.23
2022-12-19T11:58:30.303Z,25.20
2022-12-19T12:01:06.072Z,24.97
2022-12-19T12:04:10.092Z,18.40
2022-12-19T12:06:57.594Z,21.60
2022-12-19T12:13:16.079Z,27.97
2022-12-19T12:21:55.167Z,19.57
2022-12-19T12:31:18.381Z,22.50
2022-12-19T12:31:26.255Z,21.20
2022-12-19T12:31:27.851Z,20.90
2022-12-19T12:31:44.955Z,24.70
2022-12-19T12:31:47.729Z,25.10
2022-12-19T12:35:43.566Z,19.30
2022-12-19T12:38:28.454Z,18.57
2022-12-19T12:41:18.858Z,20.13
2022-12-19T12:43:57.637Z,20.30
2022-12-19T12:46:28.657Z,21.23
2022-12-19T12:49:06.423Z,26.00
2022-12-19T12:51:34.857Z,23.50
2022-12-19T12:54:12.131Z,20.40
2022-12-19T12:56:40.251Z,19.70
2022-12-19T12:59:21.221Z,20.20
2022-12-19T13:01:55.665Z,20.20
2022-12-19T13:04:30.415Z,26.43
2022-12-19T13:07:28.915Z,27.40
2022-12-19T13:10:15.267Z,30.80
2022-12-19T13:13:14.514Z,22.30
2022-12-19T13:15:44.390Z,22.60
2022-12-19T13:18:31.366Z,24.97
2022-12-19T13:20:59.490Z,20.07
2022-12-19T13:23:29.208Z,22.83
2022-12-19T13:25:56.574Z,23.70
2022-12-19T13:28:23.195Z,30.23
2022-12-19T13:31:19.607Z,21.80
2022-12-19T13:33:55.954Z,24.30
2022-12-19T13:39:26.270Z,24.83
2022-12-19T13:40:12.187Z,23.90
2022-12-19T13:43:14.328Z,20.80
2022-12-19T13:45:54.908Z,21.17
2022-12-19T13:48:56.804Z,20.17
2022-12-19T13:51:23.507Z,20.50
2022-12-19T13:53:59.606Z,22.97
2022-12-19T13:56:30.974Z,20.37
2022-12-19T13:59:01.281Z,22.43
2022-12-19T14:01:33.561Z,27.50
2022-12-19T14:04:08.197Z,21.63
2022-12-19T14:06:44.689Z,19.10
2022-12-19T14:11:26.544Z,20.50
2022-12-19T14:14:00.504Z,19.30
2022-12-19T14:15:32.796Z,17.40
2022-12-19T14:18:29.984Z,18.30
2022-12-19T14:22:05.553Z,18.50
2022-12-19T14:23:42.938Z,18.53
2022-12-19T14:28:20.448Z,20.57
2022-12-19T14:29:12.339Z,20.73
2022-12-19T14:31:58.336Z,21.50
2022-12-19T14:36:08.487Z,19.57
2022-12-19T14:38:03.871Z,23.00
2022-12-19T14:40:29.139Z,19.27
2022-12-19T14:43:59.668Z,19.70
2022-12-19T14:53:08.509Z,17.30
2022-12-19T14:54:20.627Z,16.27
2022-12-19T14:54:30.697Z,16.00
2022-12-19T14:56:00.471Z,15.40
2022-12-19T14:58:54.513Z,17.23
2022-12-19T15:01:09.182Z,16.57
2022-12-19T15:04:33.836Z,19.53
2022-12-19T15:07:09.670Z,22.37
2022-12-19T15:11:02.372Z,22.03
2022-12-19T15:14:03.904Z,22.70
2022-12-19T15:15:54.736Z,21.57
2022-12-19T15:18:33.664Z,25.27
2022-12-19T15:21:05.658Z,24.17
2022-12-19T15:23:32.838Z,20.47
2022-12-19T15:26:11.343Z,24.63
2022-12-19T15:28:50.204Z,20.60
2022-12-19T15:31:33.073Z,19.57
2022-12-19T15:36:48.425Z,22.23
2022-12-19T15:39:15.600Z,26.37
2022-12-19T15:41:43.017Z,23.37
2022-12-19T15:44:24.678Z,22.40
2022-12-19T15:46:51.469Z,25.33
2022-12-19T15:49:20.456Z,25.07
2022-12-19T15:51:47.610Z,28.60
2022-12-19T15:54:47.279Z,22.97
2022-12-19T15:57:01.731Z,25.53
2022-12-19T15:59:38.152Z,25.57
2022-12-19T16:02:21.943Z,29.57
2022-12-19T16:04:50.730Z,23.93
2022-12-19T16:07:23.105Z,33.73
2022-12-19T16:09:50.310Z,24.93
2022-12-19T16:12:20.655Z,28.23
2022-12-19T16:14:54.625Z,27.53
2022-12-19T16:17:24.485Z,27.57
2022-12-19T16:19:51.707Z,25.67
2022-12-19T16:22:26.623Z,27.53
2022-12-19T16:24:54.279Z,30.37
2022-12-19T16:27:27.804Z,30.90
2022-12-19T16:29:55.634Z,26.77
2022-12-19T16:32:24.498Z,30.47
2022-12-19T16:34:52.943Z,31.70
2022-12-19T16:37:19.954Z,24.90
2022-12-19T16:39:46.694Z,25.80
2022-12-19T16:42:16.809Z,29.00
2022-12-19T16:44:48.013Z,25.60
2022-12-19T16:47:17.679Z,26.20
2022-12-19T16:49:44.989Z,24.80
2022-12-19T16:52:12.314Z,29.50
2022-12-19T16:54:39.709Z,30.07
2022-12-19T16:57:15.861Z,32.63
2022-12-19T16:59:42.596Z,27.70
2022-12-19T17:02:21.355Z,30.47
2022-12-19T17:04:53.794Z,23.87
2022-12-19T17:07:20.772Z,25.47
2022-12-19T17:09:47.420Z,31.17
2022-12-19T17:12:18.353Z,27.30
2022-12-19T17:14:45.281Z,24.80
2022-12-19T17:17:14.751Z,32.17
2022-12-19T17:19:45.346Z,25.83
2022-12-19T17:22:14.018Z,28.83
2022-12-19T17:24:40.882Z,27.70
2022-12-19T17:27:07.739Z,31.23
2022-12-19T17:29:34.410Z,32.03
2022-12-19T17:32:01.954Z,31.47
2022-12-19T17:34:32.117Z,27.47
2022-12-19T17:37:00.584Z,27.70
2022-12-19T17:39:29.611Z,23.83
2022-12-19T17:41:59.590Z,27.97
2022-12-19T17:44:26.724Z,34.47
2022-12-19T17:46:53.686Z,30.37
2022-12-19T17:49:31.595Z,29.30
2022-12-19T17:51:59.848Z,29.37
2022-12-19T17:54:27.425Z,30.80
2022-12-19T17:56:54.182Z,25.87
2022-12-19T17:59:21.154Z,27.60
2022-12-19T18:01:48.261Z,29.63
2022-12-19T18:04:18.618Z,30.80
2022-12-19T18:06:46.560Z,30.50
2022-12-19T18:09:24.807Z,26.77
2022-12-19T18:11:52.722Z,24.50
2022-12-19T18:14:20.543Z,29.23
2022-12-19T18:16:50.403Z,26.67
2022-12-19T18:19:24.715Z,27.63
2022-12-19T18:21:51.966Z,33.03
2022-12-19T18:24:18.737Z,25.77
2022-12-19T18:26:45.597Z,31.00
2022-12-19T18:29:12.841Z,29.77
2022-12-19T18:31:46.279Z,31.03
2022-12-19T18:34:24.297Z,27.10
2022-12-19T18:36:52.184Z,22.70
2022-12-19T18:39:24.256Z,24.93
2022-12-19T18:41:52.060Z,26.23
2022-12-19T18:44:19.166Z,28.80
2022-12-19T18:46:48.565Z,23.53
2022-12-19T18:49:16.997Z,24.83
2022-12-19T18:51:44.978Z,31.97
2022-12-19T18:54:21.947Z,28.17
2022-12-19T18:56:48.872Z,27.37
2022-12-19T18:59:15.684Z,29.57
2022-12-19T19:01:46.716Z,28.57
2022-12-19T19:04:18.257Z,24.10
2022-12-19T19:06:51.021Z,26.67
2022-12-19T19:09:20.193Z,29.53
2022-12-19T19:11:47.402Z,26.20
2022-12-19T19:14:14.662Z,23.67
2022-12-19T19:16:41.676Z,29.10
2022-12-19T19:19:14.287Z,22.33
2022-12-19T19:21:41.778Z,22.67
2022-12-19T19:24:17.116Z,26.77
2022-12-19T19:26:44.175Z,27.03
2022-12-19T19:29:13.576Z,26.93
2022-12-19T19:31:44.726Z,26.70
2022-12-19T19:34:22.999Z,25.10
2022-12-19T19:36:54.899Z,28.87
2022-12-19T19:39:23.056Z,21.90
2022-12-19T19:41:50.134Z,23.17
2022-12-19T19:44:17.110Z,23.73
2022-12-19T19:46:43.876Z,24.57
2022-12-19T19:49:10.722Z,22.60
2022-12-19T19:51:37.515Z,26.67
2022-12-19T19:54:04.817Z,29.03
2022-12-19T19:56:32.544Z,29.40
2022-12-19T19:59:00.856Z,24.50
2022-12-19T20:01:28.013Z,27.70
2022-12-19T20:03:54.948Z,25.07
2022-12-19T20:06:22.129Z,26.33
2022-12-19T20:08:49.673Z,32.17
2022-12-19T20:11:17.512Z,36.50
2022-12-19T20:13:44.346Z,33.90
2022-12-19T20:16:16.145Z,24.67
2022-12-19T20:18:48.032Z,29.80
2022-12-19T20:21:15.235Z,25.60
2022-12-19T20:23:43.474Z,25.77
2022-12-19T20:26:12.435Z,24.27
2022-12-19T20:28:47.830Z,24.97
2022-12-19T20:31:17.757Z,26.10
2022-12-19T20:33:46.397Z,27.60
2022-12-19T20:36:13.932Z,26.90
2022-12-19T20:38:40.850Z,26.97
2022-12-19T20:41:08.194Z,26.67
2022-12-19T20:43:37.524Z,32.07
2022-12-19T20:46:07.827Z,35.97
2022-12-19T20:48:34.977Z,30.20
2022-12-19T20:51:02.608Z,34.17
2022-12-19T20:53:29.473Z,30.40
2022-12-19T20:56:00.004Z,34.47
2022-12-19T20:58:28.659Z,34.57
2022-12-19T21:00:56.867Z,29.70
2022-12-19T21:03:29.329Z,31.93
2022-12-19T21:05:57.044Z,28.90
2022-12-19T21:08:25.621Z,29.27
2022-12-19T21:10:54.318Z,31.87
2022-12-19T21:13:22.890Z,31.10
2022-12-19T21:15:58.874Z,26.40
2022-12-19T21:18:26.570Z,28.73
2022-12-19T21:20:53.750Z,22.50
2022-12-19T21:23:20.967Z,24.83
2022-12-19T21:25:48.098Z,25.50
2022-12-19T21:28:15.413Z,27.13
2022-12-19T21:30:42.289Z,27.90
2022-12-19T21:33:09.877Z,23.30
2022-12-19T21:35:38.036Z,28.47
2022-12-19T21:38:04.844Z,31.30
2022-12-19T21:40:31.539Z,28.93
2022-12-19T21:42:58.568Z,24.27
2022-12-19T21:45:25.507Z,21.30
2022-12-19T21:47:52.253Z,23.83
2022-12-19T21:50:19.002Z,23.87
2022-12-19T21:52:46.752Z,25.27
2022-12-19T21:55:15.952Z,27.13
2022-12-19T21:57:42.734Z,23.30
2022-12-19T22:00:12.231Z,21.33
2022-12-19T22:02:43.580Z,19.90
2022-12-19T22:05:17.571Z,16.97
2022-12-19T22:07:44.381Z,19.47
2022-12-19T22:10:11.395Z,22.10
2022-12-19T22:12:38.190Z,22.60
2022-12-19T22:15:05.300Z,21.47
2022-12-19T22:17:32.014Z,18.40
2022-12-19T22:19:58.730Z,18.53
2022-12-19T22:22:25.423Z,18.87
2022-12-19T22:24:52.177Z,19.70
2022-12-19T22:27:19.754Z,21.13
2022-12-19T22:29:46.556Z,15.00
2022-12-19T22:32:13.564Z,16.03
2022-12-19T22:34:40.298Z,17.40
2022-12-19T22:37:07.043Z,16.07
2022-12-19T22:39:34.072Z,14.97
2022-12-19T22:42:01.002Z,14.83
2022-12-19T22:44:28.249Z,16.53
2022-12-19T22:46:55.389Z,12.93
2022-12-19T22:49:22.177Z,17.43
2022-12-19T22:51:49.520Z,16.57
2022-12-19T22:54:16.347Z,16.20
2022-12-19T22:56:43.272Z,14.67
2022-12-19T22:59:12.026Z,13.20
2022-12-19T23:01:41.663Z,15.67
2022-12-19T23:04:11.572Z,13.83
2022-12-19T23:06:39.241Z,12.83
2022-12-19T23:09:08.525Z,13.90
2022-12-19T23:11:38.892Z,15.77
2022-12-19T23:14:08.120Z,13.93
2022-12-19T23:16:35.335Z,14.60
2022-12-19T23:19:02.789Z,13.20
2022-12-19T23:21:29.801Z,14.60
2022-12-19T23:23:56.991Z,13.70
2022-12-19T23:26:29.743Z,11.20
2022-12-19T23:29:02.292Z,10.10
2022-12-19T23:31:30.037Z,10.60
2022-12-19T23:33:57.934Z,12.03
2022-12-19T23:37:00.349Z,14.30
2022-12-19T23:39:12.859Z,14.90
2022-12-19T23:41:40.362Z,10.70
2022-12-19T23:44:08.746Z,9.33
2022-12-19T23:46:35.988Z,11.57
2022-12-19T23:49:03.273Z,10.73
2022-12-19T23:51:30.543Z,10.63
2022-12-19T23:53:57.798Z,10.10
2022-12-19T23:56:27.692Z,10.80
2022-12-19T23:58:55.274Z,10.00
